Time;durP1;ratioP1;P1;durP2;ratioP2;P2;SDS_P1;SDS_P2;PMS_P1;PMS_P2;Temp;Humidity;BMP_temperature;BMP_pressure;BME280_temperature;BME280_humidity;BME280_pressure;Samples;Min_cycle;Max_cycle;Signal;HPM_P1;HPM_P2
2021/06/27 00:01:00;;;;;;;5.38;4.65;;;20.60;99.90;;;;;;5011531;28;20042;-85
2021/06/27 00:03:26;;;;;;;8.98;4.65;;;20.70;99.90;;;;;;5012495;28;20504;-84
2021/06/27 00:05:52;;;;;;;5.55;4.60;;;20.70;99.90;;;;;;5012576;28;20108;-84
2021/06/27 00:08:17;;;;;;;4.70;4.30;;;20.70;99.90;;;;;;5012548;28;20048;-87
2021/06/27 00:10:44;;;;;;;6.28;4.38;;;20.80;99.90;;;;;;5010335;28;20510;-87
2021/06/27 00:13:10;;;;;;;4.75;4.32;;;20.80;99.90;;;;;;5012144;28;20080;-87
2021/06/27 00:15:42;;;;;;;8.38;4.50;;;20.80;99.90;;;;;;5012465;28;20037;-84
2021/06/27 00:18:09;;;;;;;5.80;4.30;;;20.80;99.90;;;;;;5012510;28;20053;-85
2021/06/27 00:20:37;;;;;;;5.38;4.30;;;20.80;99.90;;;;;;5011399;28;20026;-84
2021/06/27 00:23:03;;;;;;;4.60;4.20;;;20.80;99.90;;;;;;5011898;28;20116;-85
2021/06/27 00:25:30;;;;;;;5.75;4.90;;;20.70;99.90;;;;;;5011926;28;20497;-84
2021/06/27 00:27:57;;;;;;;5.05;4.47;;;20.70;99.90;;;;;;5011954;28;20109;-84
2021/06/27 00:30:24;;;;;;;4.38;3.97;;;20.70;99.90;;;;;;5012275;28;20029;-84
2021/06/27 00:32:50;;;;;;;4.70;4.13;;;20.50;99.90;;;;;;5015923;28;20494;-83
2021/06/27 00:35:17;;;;;;;6.63;4.03;;;20.60;99.90;;;;;;5015808;28;20109;-85
2021/06/27 00:37:44;;;;;;;7.18;4.35;;;20.60;99.90;;;;;;5015379;28;20049;-84
2021/06/27 00:40:12;;;;;;;4.80;3.95;;;20.60;99.90;;;;;;5015426;28;20128;-84
2021/06/27 00:42:38;;;;;;;6.18;4.13;;;20.70;99.90;;;;;;5014204;28;20045;-85
2021/06/27 00:45:07;;;;;;;7.15;4.22;;;20.60;99.90;;;;;;5016304;28;20026;-84
2021/06/27 00:47:35;;;;;;;4.68;4.00;;;20.60;99.90;;;;;;5015401;28;20037;-87
2021/06/27 00:50:02;;;;;;;4.63;4.10;;;20.60;99.90;;;;;;5015023;28;20104;-87
2021/06/27 00:52:27;;;;;;;4.82;4.32;;;20.50;99.90;;;;;;5014831;28;20065;-85
2021/06/27 00:54:53;;;;;;;4.05;3.70;;;20.50;99.90;;;;;;5015743;28;20107;-85
2021/06/27 00:57:19;;;;;;;4.78;3.90;;;20.50;99.90;;;;;;5015499;28;20117;-84
2021/06/27 00:59:45;;;;;;;5.03;4.03;;;20.60;99.90;;;;;;5015719;28;20033;-84
2021/06/27 01:02:11;;;;;;;3.92;3.33;;;20.60;99.90;;;;;;5015428;28;20049;-84
2021/06/27 01:04:38;;;;;;;5.70;4.00;;;20.60;99.90;;;;;;5015094;28;20030;-84
2021/06/27 01:07:05;;;;;;;5.35;3.47;;;20.70;99.90;;;;;;5014491;28;20046;-84
2021/06/27 01:09:31;;;;;;;4.45;3.60;;;20.70;99.90;;;;;;5015230;28;20528;-87
2021/06/27 01:11:57;;;;;;;4.35;3.95;;;20.70;99.90;;;;;;5015529;28;20026;-84
2021/06/27 01:14:23;;;;;;;5.13;3.65;;;20.70;99.90;;;;;;5015139;28;20649;-84
2021/06/27 01:16:50;;;;;;;5.28;3.42;;;20.70;99.90;;;;;;5013388;28;20034;-84
2021/06/27 01:19:16;;;;;;;3.97;3.58;;;20.70;99.90;;;;;;5014591;28;20547;-84
2021/06/27 01:21:42;;;;;;;3.80;3.30;;;20.70;99.90;;;;;;5014631;28;20046;-84
2021/06/27 01:24:08;;;;;;;4.22;3.50;;;20.80;99.90;;;;;;5015502;28;20109;-84
2021/06/27 01:26:34;;;;;;;3.42;3.13;;;20.80;99.90;;;;;;5014512;28;20517;-85
2021/06/27 01:29:00;;;;;;;4.05;3.30;;;20.80;99.90;;;;;;5014786;28;20029;-85
2021/06/27 01:31:26;;;;;;;3.75;3.45;;;20.80;99.90;;;;;;5014441;28;20028;-85
2021/06/27 01:33:53;;;;;;;4.75;3.22;;;20.80;99.90;;;;;;5014518;28;20033;-84
2021/06/27 01:36:19;;;;;;;4.40;3.45;;;20.70;99.90;;;;;;5014842;28;20014;-84
2021/06/27 01:38:45;;;;;;;3.65;3.05;;;20.70;99.90;;;;;;5014662;28;20109;-85
2021/06/27 01:41:11;;;;;;;4.03;3.67;;;20.70;99.90;;;;;;5015599;28;20121;-84
2021/06/27 01:43:36;;;;;;;3.83;3.50;;;20.70;99.90;;;;;;5013761;28;20030;-84
2021/06/27 01:46:02;;;;;;;3.53;3.22;;;20.70;99.90;;;;;;5014475;28;20022;-84
2021/06/27 01:48:33;;;;;;;3.63;3.33;;;20.70;99.90;;;;;;5014234;28;20068;-85
2021/06/27 01:51:00;;;;;;;4.05;3.38;;;20.70;99.90;;;;;;5008552;28;20133;-85
2021/06/27 01:53:32;;;;;;;4.90;3.25;;;20.60;99.90;;;;;;5014563;28;20041;-85
2021/06/27 01:56:05;;;;;;;4.00;3.70;;;20.70;99.90;;;;;;5014507;28;20470;-85
2021/06/27 01:58:35;;;;;;;8.43;3.38;;;20.60;99.90;;;;;;5014091;28;20387;-84
2021/06/27 02:01:01;;;;;;;8.48;4.28;;;20.60;99.90;;;;;;5013923;28;20060;-84
2021/06/27 02:03:26;;;;;;;5.05;3.35;;;20.60;99.90;;;;;;5014117;28;20026;-85
2021/06/27 02:05:52;;;;;;;4.60;3.40;;;20.60;99.90;;;;;;5014308;28;20036;-85
2021/06/27 02:08:18;;;;;;;3.47;3.17;;;20.60;99.90;;;;;;5014284;28;20516;-84
2021/06/27 02:10:44;;;;;;;3.70;3.28;;;20.60;99.90;;;;;;5013810;28;20430;-84
2021/06/27 02:13:09;;;;;;;3.30;3.00;;;20.60;99.90;;;;;;5013870;28;20029;-84
2021/06/27 02:15:35;;;;;;;4.85;3.40;;;20.60;99.90;;;;;;5013940;28;20034;-85
2021/06/27 02:18:10;;;;;;;3.97;3.22;;;20.60;99.90;;;;;;5014098;28;20030;-85
2021/06/27 02:20:36;;;;;;;3.78;3.17;;;20.60;99.90;;;;;;5013091;28;20443;-84
2021/06/27 02:23:02;;;;;;;3.88;3.50;;;20.60;99.90;;;;;;5013918;28;20084;-84
2021/06/27 02:25:29;;;;;;;5.00;3.40;;;20.60;99.90;;;;;;5013522;28;20052;-85
2021/06/27 02:27:55;;;;;;;4.22;3.30;;;20.60;99.90;;;;;;5013614;28;20069;-84
2021/06/27 02:30:21;;;;;;;3.83;3.22;;;20.50;99.90;;;;;;5013441;28;20065;-85
2021/06/27 02:32:47;;;;;;;6.22;3.30;;;20.50;99.90;;;;;;5012978;28;20054;-85
2021/06/27 02:35:14;;;;;;;3.88;3.47;;;20.50;99.90;;;;;;5012994;28;20080;-86
2021/06/27 02:37:41;;;;;;;3.92;3.20;;;20.40;99.90;;;;;;5013819;28;20033;-85
2021/06/27 02:40:09;;;;;;;4.03;3.22;;;20.40;99.90;;;;;;5013116;28;20037;-85
2021/06/27 02:42:35;;;;;;;3.88;3.42;;;20.40;99.90;;;;;;5013585;28;20030;-85
2021/06/27 02:45:00;;;;;;;6.13;3.40;;;20.40;99.90;;;;;;5013683;28;20026;-86
2021/06/27 02:47:26;;;;;;;3.65;3.35;;;20.30;99.90;;;;;;5013579;28;20025;-85
2021/06/27 02:49:52;;;;;;;5.85;3.45;;;20.30;99.90;;;;;;5012741;28;20042;-85
2021/06/27 02:52:18;;;;;;;3.50;3.20;;;20.30;99.90;;;;;;5012773;28;20026;-86
2021/06/27 02:54:43;;;;;;;5.85;3.40;;;20.40;99.90;;;;;;4997318;28;20033;-85
2021/06/27 02:57:09;;;;;;;5.13;3.55;;;20.40;99.90;;;;;;5013625;28;20550;-85
2021/06/27 02:59:35;;;;;;;3.80;3.50;;;20.40;99.90;;;;;;5012997;28;20398;-85
2021/06/27 03:02:00;;;;;;;4.22;3.40;;;20.30;99.90;;;;;;5012537;28;20034;-85
2021/06/27 03:04:26;;;;;;;4.32;3.65;;;20.40;99.90;;;;;;5012715;28;20116;-86
2021/06/27 03:06:51;;;;;;;3.70;3.40;;;20.30;99.90;;;;;;5012435;28;20058;-85
2021/06/27 03:09:17;;;;;;;5.22;3.20;;;20.30;99.90;;;;;;5013186;28;20032;-86
2021/06/27 03:11:44;;;;;;;5.57;3.65;;;20.30;99.90;;;;;;5013126;28;20025;-85
2021/06/27 03:14:10;;;;;;;3.97;3.38;;;20.20;99.90;;;;;;5012628;28;20121;-85
2021/06/27 03:16:35;;;;;;;4.85;3.60;;;20.20;99.90;;;;;;5012450;28;20049;-85
2021/06/27 03:19:01;;;;;;;4.18;3.50;;;20.30;99.90;;;;;;5012621;28;20025;-85
2021/06/27 03:21:26;;;;;;;4.35;3.65;;;20.30;99.90;;;;;;5012582;28;20079;-85
2021/06/27 03:23:52;;;;;;;3.50;3.20;;;20.30;99.90;;;;;;5011608;28;20033;-86
2021/06/27 03:26:18;;;;;;;5.13;3.55;;;20.30;99.90;;;;;;5012717;28;20033;-86
2021/06/27 03:28:46;;;;;;;3.97;3.40;;;20.30;99.90;;;;;;5012421;28;20120;-85
2021/06/27 03:31:12;;;;;;;4.00;3.45;;;20.30;99.90;;;;;;5012849;28;20032;-85
2021/06/27 03:33:37;;;;;;;5.30;3.55;;;20.30;99.90;;;;;;5012238;28;20398;-85
2021/06/27 03:36:04;;;;;;;4.10;3.70;;;20.20;99.90;;;;;;5013659;28;20026;-85
2021/06/27 03:38:41;;;;;;;3.95;3.45;;;20.10;99.90;;;;;;5012295;28;20105;-86
2021/06/27 03:41:07;;;;;;;6.60;4.40;;;20.10;99.90;;;;;;5012911;28;20046;-85
2021/06/27 03:43:33;;;;;;;4.22;3.80;;;20.10;99.90;;;;;;5011805;28;20030;-85
2021/06/27 03:45:59;;;;;;;4.18;3.78;;;20.00;99.90;;;;;;5011938;28;20101;-86
2021/06/27 03:48:24;;;;;;;4.80;3.90;;;19.80;99.90;;;;;;5012727;28;20504;-85
2021/06/27 03:50:50;;;;;;;4.00;3.70;;;19.90;99.90;;;;;;5012621;28;20101;-85
2021/06/27 03:53:16;;;;;;;3.72;3.20;;;19.80;99.90;;;;;;5013129;28;20029;-85
2021/06/27 03:55:41;;;;;;;4.72;3.63;;;19.80;99.90;;;;;;5010930;28;20026;-86
2021/06/27 03:58:07;;;;;;;3.72;3.42;;;19.70;99.90;;;;;;5012099;28;20030;-85
2021/06/27 04:00:32;;;;;;;4.13;3.72;;;19.80;99.90;;;;;;5012091;28;20048;-86
2021/06/27 04:02:58;;;;;;;6.00;3.05;;;19.90;99.90;;;;;;5012870;28;20486;-85
2021/06/27 04:05:24;;;;;;;4.00;3.60;;;20.00;99.90;;;;;;5011043;28;20061;-85
2021/06/27 04:07:49;;;;;;;3.70;3.28;;;20.10;99.90;;;;;;5011702;28;20107;-85
2021/06/27 04:10:15;;;;;;;5.60;3.60;;;20.10;99.90;;;;;;5011848;28;20030;-86
2021/06/27 04:12:41;;;;;;;3.80;3.38;;;20.20;99.90;;;;;;5012401;28;20053;-85
2021/06/27 04:15:08;;;;;;;5.60;3.25;;;20.40;99.90;;;;;;5012247;28;20470;-85
2021/06/27 04:17:34;;;;;;;3.80;3.50;;;20.40;99.90;;;;;;5011824;28;20045;-85
2021/06/27 04:20:00;;;;;;;4.50;3.40;;;20.50;99.90;;;;;;5011652;28;20131;-86
2021/06/27 04:22:25;;;;;;;3.75;3.40;;;20.40;99.90;;;;;;5011976;28;20183;-85
2021/06/27 04:24:51;;;;;;;6.13;3.85;;;20.40;99.90;;;;;;5012676;28;20029;-85
2021/06/27 04:27:17;;;;;;;4.72;3.53;;;20.50;99.90;;;;;;5012490;28;20092;-85
2021/06/27 04:29:44;;;;;;;4.70;3.30;;;20.40;99.90;;;;;;5009863;28;20017;-85
2021/06/27 04:32:09;;;;;;;5.45;3.78;;;20.30;99.90;;;;;;5011663;28;20116;-85
2021/06/27 04:34:35;;;;;;;4.80;3.78;;;20.40;99.90;;;;;;5011209;28;20109;-85
2021/06/27 04:37:00;;;;;;;4.00;3.60;;;20.40;99.90;;;;;;5011697;28;20029;-86
2021/06/27 04:39:27;;;;;;;6.75;3.50;;;20.40;99.90;;;;;;5012379;28;20026;-86
2021/06/27 04:41:53;;;;;;;3.60;3.30;;;20.40;99.90;;;;;;5011883;28;20037;-85
2021/06/27 04:44:18;;;;;;;5.75;3.60;;;20.40;99.90;;;;;;5011242;28;20030;-85
2021/06/27 04:46:44;;;;;;;4.95;3.67;;;20.50;99.90;;;;;;5012174;28;20113;-86
2021/06/27 04:49:12;;;;;;;4.25;3.70;;;20.40;99.90;;;;;;5010806;28;20033;-85
2021/06/27 04:51:39;;;;;;;5.88;3.78;;;20.50;99.90;;;;;;5011703;28;20026;-86
2021/06/27 04:54:05;;;;;;;4.68;3.50;;;20.50;99.90;;;;;;5012173;28;20033;-86
2021/06/27 04:56:30;;;;;;;4.18;3.75;;;20.50;99.90;;;;;;5011320;28;20040;-85
2021/06/27 04:58:57;;;;;;;3.78;3.47;;;20.50;99.90;;;;;;5011446;28;20109;-86
2021/06/27 05:01:23;;;;;;;5.03;3.58;;;20.60;99.90;;;;;;5011940;28;20092;-86
2021/06/27 05:03:48;;;;;;;4.05;3.30;;;20.70;99.90;;;;;;5010243;28;20014;-85
2021/06/27 05:06:14;;;;;;;7.47;3.55;;;20.70;99.90;;;;;;5011458;28;20104;-85
2021/06/27 05:08:40;;;;;;;8.52;4.57;;;20.70;99.90;;;;;;5011347;28;20113;-85
2021/06/27 05:11:05;;;;;;;4.85;4.10;;;20.80;99.90;;;;;;5011509;28;20037;-86
2021/06/27 05:13:31;;;;;;;6.93;4.07;;;20.80;99.90;;;;;;5010778;28;20478;-86
2021/06/27 05:15:56;;;;;;;8.88;4.05;;;20.70;99.90;;;;;;5011319;28;20038;-85
2021/06/27 05:18:23;;;;;;;5.13;3.95;;;20.60;99.90;;;;;;5014861;28;20022;-85
2021/06/27 05:20:49;;;;;;;4.82;4.18;;;20.50;99.90;;;;;;5013995;28;20026;-85
2021/06/27 05:23:15;;;;;;;4.45;3.75;;;20.40;99.90;;;;;;5014616;28;20496;-85
2021/06/27 05:25:41;;;;;;;5.07;3.65;;;20.50;99.90;;;;;;5015050;28;20026;-85
2021/06/27 05:28:07;;;;;;;4.43;4.03;;;20.50;99.90;;;;;;5014285;28;20038;-85
2021/06/27 05:30:33;;;;;;;4.90;4.43;;;20.60;99.90;;;;;;5014778;28;20034;-86
2021/06/27 05:32:59;;;;;;;4.22;3.92;;;20.70;99.90;;;;;;5015476;28;20030;-86
2021/06/27 05:35:26;;;;;;;4.55;4.15;;;20.60;99.90;;;;;;5014643;28;20381;-86
2021/06/27 05:37:51;;;;;;;5.80;4.20;;;20.60;99.90;;;;;;5014603;28;20036;-85
2021/06/27 05:40:17;;;;;;;4.75;4.28;;;20.60;99.90;;;;;;5014316;28;20034;-86
2021/06/27 05:42:43;;;;;;;5.50;4.45;;;20.70;99.90;;;;;;5014454;28;20037;-86
2021/06/27 05:45:09;;;;;;;7.63;4.53;;;20.80;99.90;;;;;;5014881;28;20128;-86
2021/06/27 05:47:35;;;;;;;5.63;4.50;;;20.80;99.90;;;;;;5014531;28;20030;-86
2021/06/27 05:50:00;;;;;;;4.43;3.88;;;20.90;99.90;;;;;;5014857;28;20093;-85
2021/06/27 05:52:26;;;;;;;4.80;4.13;;;21.00;99.90;;;;;;5014067;28;20080;-85
2021/06/27 05:54:51;;;;;;;6.47;4.43;;;21.10;99.90;;;;;;5013073;28;20030;-85
2021/06/27 05:57:17;;;;;;;5.25;4.60;;;21.30;99.90;;;;;;5015076;28;20030;-86
2021/06/27 05:59:43;;;;;;;5.32;4.20;;;21.30;99.90;;;;;;5014510;28;20018;-86
2021/06/27 06:02:09;;;;;;;9.77;5.18;;;21.40;99.90;;;;;;5014184;28;20088;-85
2021/06/27 06:04:35;;;;;;;4.50;4.10;;;21.40;99.90;;;;;;5013854;28;20502;-86
2021/06/27 06:07:00;;;;;;;5.75;4.13;;;21.40;99.90;;;;;;5013947;28;20104;-86
2021/06/27 06:09:26;;;;;;;5.20;4.45;;;21.40;99.90;;;;;;5014241;28;20530;-86
2021/06/27 06:11:52;;;;;;;4.78;4.35;;;21.50;99.90;;;;;;5014432;28;20022;-85
2021/06/27 06:14:17;;;;;;;4.38;4.07;;;21.50;99.90;;;;;;5014310;28;20389;-86
2021/06/27 06:16:46;;;;;;;5.47;4.28;;;21.70;99.90;;;;;;5014202;28;20489;-86
2021/06/27 06:19:15;;;;;;;6.03;4.32;;;21.80;99.90;;;;;;5014326;28;20152;-86
2021/06/27 06:21:40;;;;;;;4.60;4.20;;;21.90;99.90;;;;;;5013460;28;20065;-86
2021/06/27 06:24:06;;;;;;;4.40;4.00;;;22.10;99.90;;;;;;5014189;28;20064;-85
2021/06/27 06:26:32;;;;;;;5.55;4.35;;;22.20;99.90;;;;;;5013202;28;20033;-86
2021/06/27 06:28:58;;;;;;;4.28;3.97;;;22.30;99.90;;;;;;5014133;28;20018;-86
2021/06/27 06:31:24;;;;;;;4.50;4.10;;;22.30;99.90;;;;;;5011851;28;20053;-86
2021/06/27 06:33:49;;;;;;;4.55;4.15;;;22.40;99.90;;;;;;5013817;28;20467;-86
2021/06/27 06:36:15;;;;;;;9.27;4.15;;;22.60;99.90;;;;;;5014072;28;20037;-86
2021/06/27 06:38:40;;;;;;;3.90;3.60;;;22.70;99.90;;;;;;5013399;28;20030;-86
2021/06/27 06:41:06;;;;;;;4.00;3.60;;;22.80;99.90;;;;;;5011977;28;20073;-86
2021/06/27 06:43:33;;;;;;;4.53;3.80;;;23.00;99.90;;;;;;5013669;28;20525;-86
2021/06/27 06:45:59;;;;;;;6.93;3.78;;;23.00;99.90;;;;;;5013374;28;20030;-85
2021/06/27 06:48:24;;;;;;;7.20;3.55;;;22.90;99.90;;;;;;5013164;28;20088;-86
2021/06/27 06:50:50;;;;;;;4.82;3.70;;;22.90;99.90;;;;;;5013774;28;20548;-86
2021/06/27 06:53:16;;;;;;;4.90;3.70;;;23.30;99.90;;;;;;5012854;28;20088;-86
2021/06/27 06:55:41;;;;;;;4.07;3.28;;;23.50;99.90;;;;;;5011405;28;20089;-86
2021/06/27 06:58:07;;;;;;;4.20;3.17;;;23.70;99.90;;;;;;5012789;28;20034;-86
2021/06/27 07:00:33;;;;;;;4.47;3.10;;;23.70;99.90;;;;;;5013103;28;20033;-86
2021/06/27 07:02:58;;;;;;;3.95;3.42;;;23.80;99.90;;;;;;5013490;28;20052;-86
2021/06/27 07:05:24;;;;;;;4.97;3.10;;;23.60;99.90;;;;;;5012874;28;20474;-86
2021/06/27 07:07:49;;;;;;;3.75;3.10;;;24.00;99.90;;;;;;5012710;28;20042;-86
2021/06/27 07:10:15;;;;;;;5.63;3.28;;;24.40;99.90;;;;;;5008765;28;20027;-85
2021/06/27 07:12:45;;;;;;;4.60;3.15;;;24.50;99.90;;;;;;5011278;28;20025;-86
2021/06/27 07:15:11;;;;;;;3.95;2.92;;;24.40;99.90;;;;;;5013339;28;20022;-86
2021/06/27 07:17:37;;;;;;;3.50;3.20;;;24.30;99.90;;;;;;5012413;28;20026;-86
2021/06/27 07:20:05;;;;;;;4.28;3.15;;;24.70;99.90;;;;;;5012691;28;20048;-85
2021/06/27 07:22:31;;;;;;;6.53;3.20;;;24.70;99.90;;;;;;5013339;28;20485;-86
2021/06/27 07:24:57;;;;;;;5.47;3.00;;;24.80;99.90;;;;;;5012334;28;20026;-86
2021/06/27 07:27:22;;;;;;;3.63;3.05;;;24.60;99.90;;;;;;5013065;28;20095;-85
2021/06/27 07:29:49;;;;;;;3.15;2.85;;;24.40;99.90;;;;;;5012816;28;20026;-86
2021/06/27 07:32:14;;;;;;;3.58;2.97;;;24.20;99.90;;;;;;5012248;28;20029;-86
2021/06/27 07:34:41;;;;;;;3.58;3.00;;;24.20;99.90;;;;;;5012646;28;20026;-86
2021/06/27 07:37:07;;;;;;;3.15;2.83;;;24.20;99.90;;;;;;5012549;28;20466;-86
2021/06/27 07:39:32;;;;;;;3.35;3.05;;;24.40;99.90;;;;;;5011840;28;20030;-86
2021/06/27 07:41:58;;;;;;;4.07;3.05;;;24.40;99.90;;;;;;5012594;28;20045;-86
2021/06/27 07:44:24;;;;;;;3.58;3.28;;;24.50;99.90;;;;;;5012667;28;20018;-85
2021/06/27 07:46:50;;;;;;;3.65;3.20;;;24.80;99.90;;;;;;5012412;28;20104;-85
2021/06/27 07:49:15;;;;;;;3.38;3.13;;;24.80;99.90;;;;;;5012146;28;20502;-86
2021/06/27 07:51:41;;;;;;;4.47;3.15;;;25.00;99.90;;;;;;5012607;28;20022;-86
2021/06/27 07:54:06;;;;;;;3.65;3.30;;;25.10;99.90;;;;;;5012561;28;20018;-86
2021/06/27 07:56:32;;;;;;;3.22;2.92;;;25.00;99.90;;;;;;5011924;28;20113;-86
2021/06/27 07:58:57;;;;;;;3.70;3.22;;;25.00;99.90;;;;;;5012243;28;20113;-86
2021/06/27 08:01:23;;;;;;;5.28;3.50;;;25.10;99.90;;;;;;5010996;28;20045;-86
2021/06/27 08:03:49;;;;;;;3.67;3.38;;;25.20;99.90;;;;;;5012096;28;20028;-86
2021/06/27 08:06:16;;;;;;;4.55;3.15;;;25.20;99.90;;;;;;5012608;28;20124;-85
2021/06/27 08:08:41;;;;;;;4.78;3.42;;;25.40;99.90;;;;;;5011762;28;20089;-86
2021/06/27 08:11:08;;;;;;;3.92;3.53;;;25.70;99.90;;;;;;5011693;28;20401;-85
2021/06/27 08:13:34;;;;;;;4.85;4.00;;;25.90;99.90;;;;;;5011721;28;20034;-86
2021/06/27 08:16:00;;;;;;;4.00;3.70;;;26.00;99.90;;;;;;5011937;28;20173;-85
2021/06/27 08:18:26;;;;;;;4.50;4.10;;;25.80;99.90;;;;;;5012223;28;20041;-85
2021/06/27 08:20:51;;;;;;;4.28;3.88;;;25.40;99.90;;;;;;5012092;28;20401;-86
2021/06/27 08:23:17;;;;;;;3.80;3.50;;;25.40;99.90;;;;;;5011442;28;20014;-86
2021/06/27 08:25:43;;;;;;;4.70;3.78;;;25.40;99.90;;;;;;5011666;28;20042;-86
2021/06/27 08:28:09;;;;;;;4.97;4.55;;;25.30;99.90;;;;;;5010557;28;20018;-86
2021/06/27 08:30:35;;;;;;;5.03;3.97;;;25.50;99.90;;;;;;5011653;28;20125;-86
2021/06/27 08:33:01;;;;;;;5.35;4.20;;;25.60;99.90;;;;;;5012526;28;20077;-86
2021/06/27 08:35:28;;;;;;;5.07;4.05;;;25.70;99.90;;;;;;5011500;28;20053;-85
2021/06/27 08:37:54;;;;;;;4.55;4.10;;;26.20;99.90;;;;;;5011841;28;20041;-86
2021/06/27 08:40:21;;;;;;;5.75;4.10;;;26.30;99.90;;;;;;5011373;28;20049;-85
2021/06/27 08:42:47;;;;;;;4.35;3.95;;;26.50;99.90;;;;;;5011858;28;20022;-85
2021/06/27 08:45:16;;;;;;;4.40;4.00;;;26.90;99.90;;;;;;5012061;28;20073;-85
2021/06/27 08:47:42;;;;;;;4.30;3.90;;;27.00;99.90;;;;;;5011309;28;20093;-86
2021/06/27 08:50:11;;;;;;;5.13;4.00;;;27.10;99.90;;;;;;5010868;28;20030;-85
2021/06/27 08:52:37;;;;;;;4.10;3.72;;;27.10;99.90;;;;;;5014143;28;20022;-85
2021/06/27 08:55:05;;;;;;;5.38;4.10;;;26.90;99.90;;;;;;5015143;28;20465;-85
2021/06/27 08:57:31;;;;;;;3.67;3.38;;;27.10;99.90;;;;;;5015685;28;20037;-85
2021/06/27 09:00:00;;;;;;;3.90;3.35;;;27.20;99.90;;;;;;5015529;28;20113;-85
2021/06/27 09:02:26;;;;;;;3.63;3.33;;;27.50;99.90;;;;;;5015237;28;20044;-85
2021/06/27 09:04:51;;;;;;;4.30;3.90;;;27.70;99.90;;;;;;5014509;28;20022;-86
2021/06/27 09:07:37;;;;;;;4.15;3.75;;;28.00;99.90;;;;;;5015103;28;20045;-85
2021/06/27 09:10:15;;;;;;;4.68;3.80;;;28.30;99.90;;;;;;5001273;28;20099;-86
2021/06/27 09:12:50;;;;;;;6.28;3.63;;;28.50;99.90;;;;;;5014779;28;20022;-85
2021/06/27 09:15:36;;;;;;;5.50;3.88;;;28.10;99.90;;;;;;5011999;28;20029;-85
2021/06/27 09:18:09;;;;;;;4.85;4.22;;;27.80;99.90;;;;;;5013713;28;20042;-86
2021/06/27 09:20:36;;;;;;;6.18;4.28;;;27.90;99.90;;;;;;5014214;28;20088;-85
2021/06/27 09:23:02;;;;;;;5.60;4.30;;;27.70;99.90;;;;;;5014252;28;20060;-86
2021/06/27 09:25:31;;;;;;;4.97;3.90;;;27.80;99.90;;;;;;5015889;28;20493;-86
2021/06/27 09:28:19;;;;;;;4.00;3.70;;;28.40;99.90;;;;;;5015172;28;20549;-85
2021/06/27 09:30:51;;;;;;;5.63;4.03;;;28.30;99.90;;;;;;5015787;28;20494;-86
2021/06/27 09:33:19;;;;;;;4.53;4.05;;;28.50;99.90;;;;;;5011166;28;20033;-85
2021/06/27 09:35:52;;;;;;;4.60;4.10;;;28.40;99.90;;;;;;5014262;28;20112;-86
2021/06/27 09:38:35;;;;;;;5.00;4.00;;;27.90;99.90;;;;;;5014307;28;20026;-86
2021/06/27 09:41:04;;;;;;;4.45;4.05;;;28.30;99.90;;;;;;5014266;28;20046;-86
2021/06/27 09:43:33;;;;;;;4.65;4.22;;;28.30;99.90;;;;;;5014261;28;20057;-86
2021/06/27 09:46:11;;;;;;;4.78;4.05;;;28.10;99.90;;;;;;5014902;28;20057;-86
2021/06/27 09:48:49;;;;;;;5.97;4.53;;;28.50;99.90;;;;;;5013965;28;20123;-85
2021/06/27 09:51:16;;;;;;;5.15;4.20;;;28.90;99.90;;;;;;5010641;28;20034;-86
2021/06/27 09:53:42;;;;;;;4.20;3.90;;;29.20;99.90;;;;;;5015352;28;20042;-85
2021/06/27 09:56:09;;;;;;;4.75;4.20;;;29.20;99.90;;;;;;5013855;28;20375;-85
2021/06/27 09:58:35;;;;;;;5.18;4.07;;;29.30;99.90;;;;;;5013891;28;20080;-86
2021/06/27 10:01:03;;;;;;;4.43;3.97;;;28.80;99.90;;;;;;5013777;28;20044;-86
2021/06/27 10:03:43;;;;;;;4.70;4.25;;;29.10;99.90;;;;;;5013004;28;20466;-86
2021/06/27 10:06:09;;;;;;;4.68;4.28;;;28.80;99.90;;;;;;5014545;28;20074;-86
2021/06/27 10:08:35;;;;;;;4.20;3.88;;;29.20;99.90;;;;;;5013807;28;20045;-86
2021/06/27 10:11:12;;;;;;;5.45;4.20;;;29.60;99.90;;;;;;5013683;28;20486;-86
2021/06/27 10:13:40;;;;;;;3.60;3.33;;;29.60;99.90;;;;;;5013854;28;20053;-86
2021/06/27 10:16:06;;;;;;;4.30;3.58;;;29.50;99.90;;;;;;5014068;28;20032;-86
2021/06/27 10:18:33;;;;;;;4.07;3.70;;;29.40;99.90;;;;;;5013336;28;20018;-86
2021/06/27 10:20:59;;;;;;;3.88;3.25;;;29.00;99.90;;;;;;5013979;28;20446;-86
2021/06/27 10:23:25;;;;;;;3.95;3.55;;;28.70;99.90;;;;;;5013511;28;20032;-86
2021/06/27 10:25:53;;;;;;;5.35;3.78;;;29.00;99.90;;;;;;5016625;28;20075;-86
2021/06/27 10:28:19;;;;;;;4.43;3.53;;;28.70;99.90;;;;;;5013553;28;20532;-86
2021/06/27 10:30:45;;;;;;;3.95;3.58;;;29.00;99.90;;;;;;5013775;28;20065;-86
2021/06/27 10:33:11;;;;;;;7.60;3.22;;;29.30;99.90;;;;;;5013763;28;20053;-85
2021/06/27 10:35:37;;;;;;;5.07;3.53;;;29.40;99.90;;;;;;5013086;28;20041;-86
2021/06/27 10:38:06;;;;;;;5.28;3.50;;;29.10;99.90;;;;;;5013668;28;20017;-86
2021/06/27 10:40:52;;;;;;;4.68;3.65;;;28.80;99.90;;;;;;5013162;28;20084;-85
2021/06/27 10:43:19;;;;;;;4.20;3.72;;;29.30;99.90;;;;;;5013294;28;20033;-86
2021/06/27 10:45:48;;;;;;;4.60;3.60;;;29.40;99.90;;;;;;5013226;28;20022;-86
2021/06/27 10:48:32;;;;;;;4.40;3.30;;;29.20;99.90;;;;;;5009477;28;20406;-86
2021/06/27 10:50:58;;;;;;;4.78;4.13;;;30.00;99.90;;;;;;5011441;28;20025;-86
2021/06/27 10:53:24;;;;;;;3.35;3.15;;;30.20;99.90;;;;;;5013675;28;20522;-86
2021/06/27 10:55:51;;;;;;;4.35;3.28;;;30.40;99.90;;;;;;5012851;28;20026;-86
2021/06/27 10:58:18;;;;;;;3.88;3.53;;;30.00;99.90;;;;;;5013204;28;20080;-86
2021/06/27 11:00:56;;;;;;;3.92;3.17;;;30.50;99.90;;;;;;5012905;28;20041;-86
2021/06/27 11:03:28;;;;;;;3.95;3.53;;;30.90;99.90;;;;;;5010119;28;20056;-86
2021/06/27 11:06:16;;;;;;;4.25;3.10;;;30.40;99.90;;;;;;5012455;28;20022;-86
2021/06/27 11:08:58;;;;;;;4.13;3.50;;;30.40;99.90;;;;;;4997894;28;20050;-86
2021/06/27 11:11:25;;;;;;;3.30;3.00;;;30.10;99.90;;;;;;5012912;28;20109;-86
2021/06/27 11:14:11;;;;;;;4.72;3.30;;;29.30;99.90;;;;;;5013314;28;20058;-86
2021/06/27 11:16:59;;;;;;;5.30;3.50;;;28.80;99.90;;;;;;5012078;28;20041;-86
2021/06/27 11:19:38;;;;;;;3.45;3.08;;;29.20;99.90;;;;;;5012130;28;20026;-86
2021/06/27 11:22:30;;;;;;;4.07;2.92;;;29.50;99.90;;;;;;5012855;28;20061;-85
2021/06/27 11:24:57;;;;;;;5.30;3.55;;;30.20;99.90;;;;;;4996210;28;20038;-86
2021/06/27 11:27:44;;;;;;;4.70;2.97;;;30.90;99.90;;;;;;5012980;28;20410;-86
2021/06/27 11:30:19;;;;;;;4.22;3.30;;;30.90;99.90;;;;;;5012370;28;20029;-86
2021/06/27 11:32:45;;;;;;;3.10;2.90;;;31.10;99.90;;;;;;5013037;28;20401;-86
2021/06/27 11:35:32;;;;;;;3.70;3.10;;;31.40;99.90;;;;;;5012147;28;20026;-86
2021/06/27 11:37:58;;;;;;;3.55;3.25;;;31.60;99.90;;;;;;5008072;28;20026;-87
2021/06/27 11:40:42;;;;;;;5.00;3.22;;;31.60;99.90;;;;;;5009314;28;20036;-87
2021/06/27 11:43:08;;;;;;;5.00;3.90;;;31.30;99.90;;;;;;5010181;28;20465;-87
2021/06/27 11:45:33;;;;;;;5.10;3.47;;;31.10;99.90;;;;;;5006140;28;20129;-86
2021/06/27 11:48:00;;;;;;;4.20;3.70;;;30.90;99.90;;;;;;5001663;28;20097;-86
2021/06/27 11:50:29;;;;;;;3.97;3.33;;;30.50;99.90;;;;;;4996963;28;20386;-86
2021/06/27 11:52:59;;;;;;;4.13;3.30;;;30.60;99.90;;;;;;4996884;28;20060;-87
2021/06/27 11:55:25;;;;;;;3.90;3.55;;;31.00;99.90;;;;;;5001125;28;20033;-87
2021/06/27 11:57:50;;;;;;;3.80;3.50;;;30.50;99.90;;;;;;5009449;28;20034;-87
2021/06/27 12:00:16;;;;;;;4.32;3.92;;;30.10;99.90;;;;;;5012302;28;20033;-86
2021/06/27 12:02:42;;;;;;;3.50;3.20;;;30.00;99.90;;;;;;4999277;28;20030;-88
2021/06/27 12:05:17;;;;;;;3.35;3.05;;;30.40;99.90;;;;;;5005552;28;20437;-87
2021/06/27 12:07:46;;;;;;;3.45;3.15;;;31.00;99.90;;;;;;5009897;28;20509;-87
2021/06/27 12:10:18;;;;;;;4.07;3.10;;;31.10;99.90;;;;;;5005451;28;20022;-88
2021/06/27 12:12:58;;;;;;;3.78;3.15;;;31.30;99.90;;;;;;5010788;28;20061;-88
2021/06/27 12:15:45;;;;;;;3.25;2.95;;;30.80;99.90;;;;;;5008169;28;20033;-88
2021/06/27 12:18:18;;;;;;;5.00;3.15;;;31.20;99.90;;;;;;5013128;28;20026;-87
2021/06/27 12:20:49;;;;;;;4.22;3.22;;;32.60;99.90;;;;;;5011616;28;20461;-87
2021/06/27 12:23:33;;;;;;;3.17;2.95;;;32.30;99.90;;;;;;5009731;28;20034;-87
2021/06/27 12:26:08;;;;;;;3.30;3.00;;;32.80;99.90;;;;;;5008995;28;20054;-87
2021/06/27 12:28:37;;;;;;;3.17;2.97;;;32.80;99.90;;;;;;5015436;28;20026;-87
2021/06/27 12:31:17;;;;;;;4.50;3.35;;;33.80;99.90;;;;;;5013245;28;20018;-88
2021/06/27 12:33:54;;;;;;;4.60;3.20;;;35.30;99.90;;;;;;5014312;28;20034;-87
2021/06/27 12:36:34;;;;;;;3.83;3.10;;;33.50;99.90;;;;;;5012714;28;20512;-88
2021/06/27 12:39:25;;;;;;;4.60;3.10;;;33.00;99.90;;;;;;5014890;28;20036;-87
2021/06/27 12:42:06;;;;;;;3.08;2.88;;;31.80;99.90;;;;;;5012927;28;20465;-88
2021/06/27 12:44:32;;;;;;;5.22;3.47;;;31.10;99.90;;;;;;5015006;28;20026;-88
2021/06/27 12:46:58;;;;;;;3.05;2.85;;;31.70;99.90;;;;;;5014565;28;20034;-87
2021/06/27 12:49:32;;;;;;;3.88;3.33;;;30.90;99.90;;;;;;5012337;28;20029;-88
2021/06/27 12:51:57;;;;;;;3.65;3.30;;;31.50;99.90;;;;;;5013804;28;20014;-87